createdAt,value
2022-09-21T00:01:25.510Z,98517.72
2022-09-21T00:03:55.484Z,98513.63
2022-09-21T00:06:25.035Z,98510.28
2022-09-21T00:08:52.714Z,98512.28
2022-09-21T00:11:27.385Z,98509.84
2022-09-21T00:13:59.720Z,98510.00
2022-09-21T00:16:27.804Z,98510.06
2022-09-21T00:18:54.578Z,98511.97
2022-09-21T00:21:21.810Z,98499.94
2022-09-21T00:23:49.047Z,98510.25
2022-09-21T00:26:20.081Z,98506.81
2022-09-21T00:28:48.615Z,98507.75
2022-09-21T00:31:18.060Z,98515.56
2022-09-21T00:33:44.834Z,98514.78
2022-09-21T00:36:19.526Z,98508.88
2022-09-21T00:39:03.629Z,98518.56
2022-09-21T00:41:33.275Z,98519.72
2022-09-21T00:44:18.480Z,98515.81
2022-09-21T00:46:49.117Z,98515.25
2022-09-21T00:49:17.538Z,98514.66
2022-09-21T00:51:45.514Z,98524.13
2022-09-21T00:54:21.192Z,98522.31
2022-09-21T00:56:47.953Z,98521.50
2022-09-21T00:59:21.526Z,98525.81
2022-09-21T01:01:49.523Z,98530.19
2022-09-21T01:04:18.822Z,98538.22
2022-09-21T01:06:47.775Z,98534.97
2022-09-21T01:09:16.770Z,98534.28
2022-09-21T01:12:05.715Z,98532.66
2022-09-21T01:14:45.854Z,98534.41
2022-09-21T01:17:28.976Z,98528.41
2022-09-21T01:20:15.822Z,98539.72
2022-09-21T01:23:12.631Z,98536.59
2022-09-21T01:25:52.119Z,98527.50
2022-09-21T01:29:00.023Z,98539.75
2022-09-21T01:32:05.286Z,98534.72
2022-09-21T01:35:09.226Z,98527.91
2022-09-21T01:37:59.085Z,98533.97
2022-09-21T01:40:35.991Z,98529.81
2022-09-21T01:43:06.756Z,98532.38
2022-09-21T01:45:42.171Z,98535.78
2022-09-21T01:48:09.398Z,98536.56
2022-09-21T01:50:44.269Z,98536.53
2022-09-21T01:53:41.441Z,98536.75
2022-09-21T01:56:27.394Z,98550.53
2022-09-21T01:59:17.838Z,98536.91
2022-09-21T02:01:57.467Z,98536.00
2022-09-21T02:04:24.698Z,98534.31
2022-09-21T02:06:52.854Z,98547.13
2022-09-21T02:09:20.346Z,98542.03
2022-09-21T02:11:47.090Z,98543.00
2022-09-21T02:14:20.360Z,98540.59
2022-09-21T02:17:19.915Z,98539.25
2022-09-21T02:20:20.624Z,98540.47
2022-09-21T02:22:56.036Z,98540.75
2022-09-21T02:25:58.665Z,98540.75
2022-09-21T02:29:11.765Z,98540.44
2022-09-21T02:32:06.201Z,98542.44
2022-09-21T02:34:51.505Z,98540.75
2022-09-21T02:37:44.853Z,98545.91
2022-09-21T02:40:55.433Z,98550.16
2022-09-21T02:43:29.075Z,98549.25
2022-09-21T02:46:07.367Z,98544.81
2022-09-21T02:49:21.529Z,98554.16
2022-09-21T02:51:54.245Z,98556.63
2022-09-21T02:54:29.221Z,98551.28
2022-09-21T02:56:59.571Z,98560.56
2022-09-21T02:59:27.781Z,98556.94
2022-09-21T03:01:55.736Z,98555.00
2022-09-21T03:04:23.096Z,98555.63
2022-09-21T03:06:49.858Z,98554.56
2022-09-21T03:09:17.172Z,98546.84
2022-09-21T03:11:43.907Z,98546.72
2022-09-21T03:14:10.742Z,98545.81
2022-09-21T03:16:38.710Z,98548.16
2022-09-21T03:19:05.908Z,98555.00
2022-09-21T03:21:32.634Z,98557.44
2022-09-21T03:23:59.332Z,98565.94
2022-09-21T03:26:26.231Z,98559.88
2022-09-21T03:28:54.618Z,98561.50
2022-09-21T03:31:22.329Z,98559.75
2022-09-21T03:33:49.592Z,98562.38
2022-09-21T03:36:17.047Z,98566.69
2022-09-21T03:38:44.230Z,98565.75
2022-09-21T03:41:10.934Z,98565.63
2022-09-21T03:43:37.626Z,98563.13
2022-09-21T03:46:04.529Z,98568.28
2022-09-21T03:48:32.586Z,98564.91
2022-09-21T03:50:59.375Z,98570.06
2022-09-21T03:53:26.168Z,98567.66
2022-09-21T03:55:52.876Z,98570.31
2022-09-21T03:58:20.000Z,98559.81
2022-09-21T04:00:46.735Z,98567.19
2022-09-21T04:03:13.497Z,98570.28
2022-09-21T04:05:40.244Z,98572.53
2022-09-21T04:08:07.275Z,98574.94
2022-09-21T04:10:34.074Z,98579.88
2022-09-21T04:13:03.310Z,98579.06
2022-09-21T04:15:30.312Z,98578.28
2022-09-21T04:17:57.403Z,98593.63
2022-09-21T04:20:24.159Z,98587.41
2022-09-21T04:22:51.729Z,98593.31
2022-09-21T04:25:18.719Z,98596.66
2022-09-21T04:27:45.508Z,98599.22
2022-09-21T04:30:15.185Z,98598.19
2022-09-21T04:32:42.039Z,98602.50
2022-09-21T04:35:09.265Z,98599.94
2022-09-21T04:37:36.025Z,98598.19
2022-09-21T04:40:05.052Z,98604.13
2022-09-21T04:42:32.256Z,98596.44
2022-09-21T04:44:58.995Z,98604.94
2022-09-21T04:47:26.002Z,98609.97
2022-09-21T04:49:53.422Z,98610.72
2022-09-21T04:52:20.312Z,98615.94
2022-09-21T04:54:47.715Z,98615.03
2022-09-21T04:57:15.327Z,98614.06
2022-09-21T04:59:42.012Z,98620.97
2022-09-21T05:02:08.947Z,98622.50
2022-09-21T05:04:36.241Z,98623.19
2022-09-21T05:07:03.234Z,98631.59
2022-09-21T05:09:48.303Z,98632.44
2022-09-21T05:12:15.098Z,98627.06
2022-09-21T05:14:43.958Z,98638.09
2022-09-21T05:17:12.376Z,98638.75
2022-09-21T05:19:39.568Z,98635.25
2022-09-21T05:22:06.291Z,98646.34
2022-09-21T05:24:33.046Z,98649.56
2022-09-21T05:27:00.031Z,98637.31
2022-09-21T05:29:27.116Z,98639.00
2022-09-21T05:32:06.276Z,98646.13
2022-09-21T05:35:04.232Z,98649.81
2022-09-21T05:37:52.024Z,98655.00
2022-09-21T05:40:19.451Z,98647.38
2022-09-21T05:42:46.717Z,98661.13
2022-09-21T05:45:19.255Z,98661.13
2022-09-21T05:48:11.098Z,98656.66
2022-09-21T05:50:54.986Z,98651.50
2022-09-21T05:53:53.358Z,98650.47
2022-09-21T05:57:14.260Z,98654.72
2022-09-21T06:00:19.768Z,98657.88
2022-09-21T06:03:17.877Z,98657.03
2022-09-21T06:05:45.225Z,98662.00
2022-09-21T06:08:11.925Z,98653.19
2022-09-21T06:10:38.644Z,98651.22
2022-09-21T06:13:05.346Z,98660.78
2022-09-21T06:15:38.215Z,98657.91
2022-09-21T06:18:08.422Z,98655.16
2022-09-21T06:20:35.787Z,98656.03
2022-09-21T06:23:08.949Z,98662.78
2022-09-21T06:25:36.487Z,98661.56
2022-09-21T06:28:04.883Z,98663.59
2022-09-21T06:30:34.605Z,98678.41
2022-09-21T06:33:03.020Z,98666.75
2022-09-21T06:35:31.543Z,98667.22
2022-09-21T06:38:03.735Z,98666.13
2022-09-21T06:40:33.966Z,98668.41
2022-09-21T06:43:02.769Z,98670.66
2022-09-21T06:45:31.082Z,98673.03
2022-09-21T06:47:57.886Z,98673.72
2022-09-21T06:50:24.994Z,98670.13
2022-09-21T06:52:51.762Z,98675.13
2022-09-21T06:55:19.053Z,98673.13
2022-09-21T06:57:46.319Z,98685.97
2022-09-21T07:00:14.253Z,98674.44
2022-09-21T07:02:45.386Z,98678.41
2022-09-21T07:05:13.064Z,98677.66
2022-09-21T07:07:40.265Z,98686.66
2022-09-21T07:10:13.336Z,98688.41
2022-09-21T07:12:43.579Z,98682.75
2022-09-21T07:15:10.650Z,98686.06
2022-09-21T07:17:39.404Z,98693.81
2022-09-21T07:20:07.925Z,98686.16
2022-09-21T07:22:35.789Z,98688.06
2022-09-21T07:25:04.186Z,98684.97
2022-09-21T07:27:33.147Z,98691.22
2022-09-21T07:29:59.870Z,98689.06
2022-09-21T07:32:26.630Z,98692.72
2022-09-21T07:34:56.904Z,98691.72
2022-09-21T07:37:25.211Z,98697.44
2022-09-21T07:39:52.847Z,98693.34
2022-09-21T07:42:22.529Z,98690.97
2022-09-21T07:44:50.877Z,98693.97
2022-09-21T07:47:18.078Z,98688.41
2022-09-21T07:49:45.678Z,98687.81
2022-09-21T07:52:12.370Z,98687.97
2022-09-21T07:54:39.149Z,98690.78
2022-09-21T07:57:24.319Z,98689.78
2022-09-21T07:59:51.006Z,98691.00
2022-09-21T08:02:17.856Z,98687.03
2022-09-21T08:04:44.661Z,98693.28
2022-09-21T08:07:11.351Z,98692.47
2022-09-21T08:09:38.532Z,98685.72
2022-09-21T08:12:05.260Z,98690.06
2022-09-21T08:14:32.079Z,98685.66
2022-09-21T08:16:58.802Z,98695.84
2022-09-21T08:19:26.494Z,98699.00
2022-09-21T08:21:57.449Z,98693.59
2022-09-21T08:24:26.511Z,98696.75
2022-09-21T08:26:55.545Z,98697.06
2022-09-21T08:29:22.358Z,98703.25
2022-09-21T08:31:49.194Z,98694.59
2022-09-21T08:34:16.143Z,98697.03
2022-09-21T08:36:42.911Z,98700.03
2022-09-21T08:39:09.673Z,98686.94
2022-09-21T08:41:58.786Z,98697.53
2022-09-21T08:44:49.802Z,98696.59
2022-09-21T08:47:21.596Z,98704.63
2022-09-21T08:49:57.187Z,98706.13
2022-09-21T08:52:26.516Z,98702.63
2022-09-21T08:55:18.577Z,98696.78
2022-09-21T08:57:45.611Z,98695.50
2022-09-21T09:00:19.110Z,98698.81
2022-09-21T09:03:40.753Z,98694.41
2022-09-21T09:06:33.962Z,98694.56
2022-09-21T09:09:35.228Z,98704.88
2022-09-21T09:12:20.517Z,98701.91
2022-09-21T09:15:33.967Z,98706.81
2022-09-21T09:18:34.066Z,98695.25
2022-09-21T09:21:39.313Z,98697.63
2022-09-21T09:24:14.693Z,98695.06
2022-09-21T09:27:09.180Z,98692.25
2022-09-21T09:30:20.732Z,98695.03
2022-09-21T09:33:12.939Z,98702.78
2022-09-21T09:35:50.089Z,98694.03
2022-09-21T09:39:05.197Z,98684.44
2022-09-21T09:42:39.772Z,98690.09
2022-09-21T09:45:29.357Z,98684.44
2022-09-21T09:48:09.658Z,98675.56
2022-09-21T09:50:41.525Z,98676.53
2022-09-21T09:53:14.978Z,98669.91
2022-09-21T09:55:47.754Z,98668.97
2022-09-21T09:58:40.921Z,98661.88
2022-09-21T10:01:07.901Z,98664.72
2022-09-21T10:03:36.065Z,98668.28
2022-09-21T10:06:03.022Z,98652.53
2022-09-21T10:08:47.162Z,98652.91
2022-09-21T10:11:16.637Z,98659.66
2022-09-21T10:13:47.204Z,98643.41
2022-09-21T10:16:23.838Z,98643.19
2022-09-21T10:18:56.637Z,98642.19
2022-09-21T10:21:32.608Z,98638.16
2022-09-21T10:24:06.748Z,98635.75
2022-09-21T10:26:45.690Z,98633.66
2022-09-21T10:29:25.270Z,98630.22
2022-09-21T10:32:20.997Z,98634.09
2022-09-21T10:35:07.611Z,98626.59
2022-09-21T10:37:43.356Z,98613.31
2022-09-21T10:40:25.522Z,98617.38
2022-09-21T10:42:58.431Z,98617.84
2022-09-21T10:45:31.403Z,98619.94
2022-09-21T10:48:06.489Z,98614.06
2022-09-21T10:50:46.791Z,98607.63
2022-09-21T10:53:24.296Z,98619.84
2022-09-21T10:56:19.472Z,98611.88
2022-09-21T10:59:26.719Z,98601.38
2022-09-21T11:01:57.677Z,98608.50
2022-09-21T11:04:53.636Z,98607.44
2022-09-21T11:07:39.804Z,98613.84
2022-09-21T11:10:43.647Z,98603.28
2022-09-21T11:13:31.011Z,98609.31
2022-09-21T11:16:24.395Z,98607.19
2022-09-21T11:19:13.906Z,98606.88
2022-09-21T11:22:07.672Z,98601.50
2022-09-21T11:25:04.773Z,98603.16
2022-09-21T11:27:43.862Z,98604.88
2022-09-21T11:30:16.609Z,98598.41
2022-09-21T11:33:31.260Z,98588.88
2022-09-21T11:36:50.347Z,98587.97
2022-09-21T11:39:59.998Z,98574.63
2022-09-21T11:42:51.123Z,98568.63
2022-09-21T11:45:58.832Z,98572.06
2022-09-21T11:48:51.122Z,98564.94
2022-09-21T11:51:43.733Z,98564.03
2022-09-21T11:55:01.084Z,98561.84
2022-09-21T11:57:42.442Z,98558.97
2022-09-21T12:00:21.601Z,98554.16
2022-09-21T12:03:13.151Z,98550.16
2022-09-21T12:06:16.609Z,98560.94
2022-09-21T12:09:02.883Z,98544.88
2022-09-21T12:11:53.667Z,98538.59
2022-09-21T12:14:42.564Z,98533.34
2022-09-21T12:17:28.403Z,98526.81
2022-09-21T12:20:23.385Z,98529.25
2022-09-21T12:23:01.229Z,98528.88
2022-09-21T12:25:40.736Z,98537.50
2022-09-21T12:28:24.335Z,98540.06
2022-09-21T12:31:00.684Z,98539.72
2022-09-21T12:34:03.112Z,98532.66
2022-09-21T12:36:44.400Z,98533.47
2022-09-21T12:39:27.829Z,98521.84
2022-09-21T12:42:05.427Z,98523.41
2022-09-21T12:44:52.001Z,98521.47
2022-09-21T12:47:58.110Z,98515.41
2022-09-21T12:50:48.643Z,98517.09
2022-09-21T12:53:20.917Z,98514.25
2022-09-21T12:56:10.254Z,98504.81
2022-09-21T12:59:04.902Z,98509.34
2022-09-21T13:01:53.381Z,98509.31
2022-09-21T13:04:54.263Z,98507.69
2022-09-21T13:08:04.493Z,98498.56
2022-09-21T13:10:42.467Z,98497.63
2022-09-21T13:13:24.326Z,98488.38
2022-09-21T13:15:52.092Z,98495.16
2022-09-21T13:18:29.704Z,98492.88
2022-09-21T13:21:01.246Z,98489.59
2022-09-21T13:23:42.138Z,98482.28
2022-09-21T13:26:13.535Z,98479.81
2022-09-21T13:28:55.101Z,98481.94
2022-09-21T13:31:52.533Z,98474.47
2022-09-21T13:34:19.146Z,98470.34
2022-09-21T13:37:11.532Z,98464.38
2022-09-21T13:40:02.022Z,98465.47
2022-09-21T13:42:34.674Z,98467.28
2022-09-21T13:45:24.923Z,98471.28
2022-09-21T13:48:00.074Z,98470.91
2022-09-21T13:50:41.414Z,98460.13
2022-09-21T13:53:23.346Z,98469.63
2022-09-21T13:55:55.371Z,98462.53
2022-09-21T13:58:41.098Z,98450.41
2022-09-21T14:01:46.165Z,98451.06
2022-09-21T14:04:40.167Z,98451.69
2022-09-21T14:07:08.180Z,98454.09
2022-09-21T14:09:57.898Z,98450.00
2022-09-21T14:12:32.249Z,98456.25
2022-09-21T14:15:18.250Z,98451.06
2022-09-21T14:18:07.676Z,98447.03
2022-09-21T14:20:39.493Z,98447.13
2022-09-21T14:23:32.578Z,98451.41
2022-09-21T14:26:04.146Z,98443.19
2022-09-21T14:28:35.012Z,98452.66
2022-09-21T14:31:14.328Z,98454.72
2022-09-21T14:33:54.886Z,98435.13
2022-09-21T14:36:49.909Z,98441.03
2022-09-21T14:39:41.882Z,98443.72
2022-09-21T14:42:29.117Z,98435.66
2022-09-21T14:45:01.230Z,98436.50
2022-09-21T14:48:05.790Z,98440.22
2022-09-21T14:50:55.636Z,98432.72
2022-09-21T14:53:41.764Z,98431.75
2022-09-21T14:56:38.979Z,98434.66
2022-09-21T14:59:15.565Z,98428.13
2022-09-21T15:02:02.305Z,98426.16
2022-09-21T15:04:54.583Z,98422.44
2022-09-21T15:08:04.574Z,98422.44
2022-09-21T15:10:55.814Z,98420.63
2022-09-21T15:13:46.447Z,98410.44
2022-09-21T15:16:38.147Z,98420.09
2022-09-21T15:19:23.453Z,98406.19
2022-09-21T15:21:57.007Z,98414.25
2022-09-21T15:24:31.748Z,98409.50
2022-09-21T15:27:12.693Z,98400.47
2022-09-21T15:29:42.963Z,98412.38
2022-09-21T15:32:09.665Z,98401.78
2022-09-21T15:34:36.414Z,98396.28
2022-09-21T15:37:12.164Z,98409.22
2022-09-21T15:39:41.156Z,98405.31
2022-09-21T15:42:07.765Z,98399.56
2022-09-21T15:44:36.764Z,98401.50
2022-09-21T15:47:08.841Z,98396.06
2022-09-21T15:49:36.664Z,98392.22
2022-09-21T15:52:12.743Z,98388.97
2022-09-21T15:54:49.017Z,98393.22
2022-09-21T15:57:42.813Z,98392.19
2022-09-21T16:00:15.423Z,98387.19
2022-09-21T16:03:22.705Z,98379.03
2022-09-21T16:05:54.332Z,98383.31
2022-09-21T16:08:39.512Z,98390.88
2022-09-21T16:11:26.419Z,98380.75
2022-09-21T16:14:38.258Z,98387.19
2022-09-21T16:17:13.860Z,98377.31
2022-09-21T16:19:43.018Z,98380.03
2022-09-21T16:22:19.714Z,98385.94
2022-09-21T16:24:52.721Z,98389.19
2022-09-21T16:27:23.282Z,98398.06
2022-09-21T16:29:53.763Z,98391.75
2022-09-21T16:32:33.026Z,98394.91
2022-09-21T16:35:31.327Z,98396.72
2022-09-21T16:37:58.535Z,98397.63
2022-09-21T16:40:27.363Z,98403.94
2022-09-21T16:42:55.548Z,98403.19
2022-09-21T16:45:29.546Z,98408.63
2022-09-21T16:47:57.534Z,98397.47
2022-09-21T16:50:24.449Z,98402.88
2022-09-21T16:52:52.239Z,98412.38
2022-09-21T16:55:20.244Z,98411.66
2022-09-21T16:57:48.771Z,98411.78
2022-09-21T17:00:20.518Z,98412.44
2022-09-21T17:02:48.926Z,98409.78
2022-09-21T17:05:19.239Z,98413.72
2022-09-21T17:07:58.572Z,98421.22
2022-09-21T17:10:36.826Z,98421.47
2022-09-21T17:13:07.601Z,98417.31
2022-09-21T17:15:36.331Z,98414.81
2022-09-21T17:18:03.992Z,98437.75
2022-09-21T17:20:38.350Z,98431.19
2022-09-21T17:23:05.507Z,98435.56
2022-09-21T17:25:33.793Z,98425.22
2022-09-21T17:28:03.221Z,98429.66
2022-09-21T17:30:30.147Z,98425.47
2022-09-21T17:32:58.321Z,98434.19
2022-09-21T17:35:38.833Z,98434.25
2022-09-21T17:38:12.425Z,98440.34
2022-09-21T17:40:42.435Z,98441.84
2022-09-21T17:43:49.118Z,98446.28
2022-09-21T17:46:54.453Z,98448.81
2022-09-21T17:49:21.782Z,98443.50
2022-09-21T17:52:07.316Z,98449.41
2022-09-21T17:54:34.340Z,98450.03
2022-09-21T17:57:18.912Z,98460.16
2022-09-21T17:59:57.469Z,98464.34
2022-09-21T18:02:28.464Z,98462.16
2022-09-21T18:05:04.565Z,98460.97
2022-09-21T18:07:31.747Z,98459.13
2022-09-21T18:09:59.196Z,98461.41
2022-09-21T18:12:50.562Z,98469.94
2022-09-21T18:16:22.180Z,98461.06
2022-09-21T18:19:04.594Z,98454.63
2022-09-21T18:21:40.959Z,98460.09
2022-09-21T18:24:36.093Z,98460.53
2022-09-21T18:27:03.252Z,98468.66
2022-09-21T18:29:39.942Z,98461.13
2022-09-21T18:32:57.729Z,98468.72
2022-09-21T18:35:58.836Z,98472.97
2022-09-21T18:38:38.395Z,98468.13
2022-09-21T18:41:24.676Z,98475.31
2022-09-21T18:44:25.804Z,98480.38
2022-09-21T18:47:11.545Z,98479.94
2022-09-21T18:50:02.858Z,98479.38
2022-09-21T19:10:22.548Z,98484.06
2022-09-21T19:31:55.637Z,98499.66
2022-09-21T19:34:22.546Z,98496.44
2022-09-21T19:36:49.485Z,98494.84
2022-09-21T19:39:16.898Z,98495.00
2022-09-21T19:42:12.718Z,98494.47
2022-09-21T19:45:16.975Z,98491.38
2022-09-21T19:47:53.729Z,98496.00
2022-09-21T19:50:36.227Z,98487.00
2022-09-21T19:53:24.404Z,98489.03
2022-09-21T19:56:09.755Z,98493.75
2022-09-21T19:58:55.284Z,98497.44
2022-09-21T20:01:22.435Z,98489.75
2022-09-21T20:03:49.341Z,98501.97
2022-09-21T20:06:29.295Z,98497.09
2022-09-21T20:09:18.007Z,98491.47
2022-09-21T20:12:22.701Z,98499.50
2022-09-21T20:15:11.882Z,98495.56
2022-09-21T20:17:46.534Z,98504.38
2022-09-21T20:20:23.860Z,98497.69
2022-09-21T20:22:51.209Z,98494.41
2022-09-21T20:25:36.517Z,98498.94
2022-09-21T20:28:04.570Z,98501.72
2022-09-21T20:30:35.693Z,98500.13
2022-09-21T20:33:16.147Z,98503.13
2022-09-21T20:35:43.892Z,98496.47
2022-09-21T20:38:11.147Z,98495.00
2022-09-21T20:40:40.054Z,98496.94
2022-09-21T20:43:08.972Z,98502.38
2022-09-21T20:45:36.212Z,98506.78
2022-09-21T20:48:15.604Z,98513.06
2022-09-21T20:50:49.367Z,98503.78
2022-09-21T20:53:19.125Z,98512.66
2022-09-21T20:55:55.670Z,98498.25
2022-09-21T20:58:22.520Z,98515.72
2022-09-21T21:00:49.927Z,98510.88
2022-09-21T21:03:17.447Z,98511.78
2022-09-21T21:05:44.190Z,98512.88
2022-09-21T21:08:11.063Z,98513.13
2022-09-21T21:10:38.041Z,98506.41
2022-09-21T21:13:05.198Z,98520.53
2022-09-21T21:15:32.005Z,98515.59
2022-09-21T21:17:58.721Z,98518.41
2022-09-21T21:20:25.601Z,98516.00
2022-09-21T21:22:53.623Z,98516.91
2022-09-21T21:25:20.493Z,98509.44
2022-09-21T21:27:47.188Z,98508.03
2022-09-21T21:30:14.005Z,98509.88
2022-09-21T21:32:42.178Z,98504.78
2022-09-21T21:35:09.460Z,98509.13
2022-09-21T21:37:37.049Z,98503.13
2022-09-21T21:40:04.368Z,98502.34
2022-09-21T21:42:31.101Z,98501.56
2022-09-21T21:44:57.804Z,98506.25
2022-09-21T21:47:41.064Z,98500.41
2022-09-21T21:50:09.727Z,98500.53
2022-09-21T21:52:37.420Z,98501.63
2022-09-21T21:55:05.949Z,98498.50
2022-09-21T21:57:33.041Z,98496.91
2022-09-21T21:59:59.884Z,98496.91
2022-09-21T22:02:27.161Z,98503.00
2022-09-21T22:04:53.928Z,98491.16
2022-09-21T22:07:20.680Z,98494.09
2022-09-21T22:09:47.482Z,98492.75
2022-09-21T22:12:14.374Z,98483.53
2022-09-21T22:14:41.094Z,98490.53
2022-09-21T22:17:07.827Z,98482.78
2022-09-21T22:19:34.977Z,98490.63
2022-09-21T22:22:01.698Z,98485.44
2022-09-21T22:24:28.438Z,98486.38
2022-09-21T22:26:55.416Z,98494.34
2022-09-21T22:29:22.174Z,98499.66
2022-09-21T22:31:50.554Z,98485.13
2022-09-21T22:34:17.907Z,98495.72
2022-09-21T22:36:44.929Z,98487.28
2022-09-21T22:39:12.918Z,98496.00
2022-09-21T22:41:42.328Z,98494.66
2022-09-21T22:44:10.342Z,98494.84
2022-09-21T22:46:38.287Z,98487.34
2022-09-21T22:49:05.386Z,98493.47
2022-09-21T22:51:32.684Z,98486.84
2022-09-21T22:54:01.361Z,98488.59
2022-09-21T22:56:31.270Z,98489.59
2022-09-21T22:59:01.660Z,98494.91
2022-09-21T23:01:38.207Z,98494.22
2022-09-21T23:04:11.399Z,98486.56
2022-09-21T23:06:45.161Z,98486.56
2022-09-21T23:09:21.268Z,98486.66
2022-09-21T23:11:55.164Z,98492.97
2022-09-21T23:14:23.582Z,98483.84
2022-09-21T23:16:51.547Z,98489.22
2022-09-21T23:19:18.353Z,98485.81
2022-09-21T23:21:50.215Z,98493.56
2022-09-21T23:24:18.090Z,98489.31
2022-09-21T23:26:46.010Z,98489.53
2022-09-21T23:29:15.310Z,98488.97
2022-09-21T23:31:45.527Z,98479.63
2022-09-21T23:34:13.883Z,98481.28
2022-09-21T23:36:42.404Z,98481.38
2022-09-21T23:39:13.904Z,98475.38
2022-09-21T23:41:45.880Z,98475.41
2022-09-21T23:44:12.947Z,98478.00
2022-09-21T23:46:40.491Z,98472.94
2022-09-21T23:49:07.878Z,98475.69
2022-09-21T23:51:35.369Z,98479.16
2022-09-21T23:54:03.560Z,98480.91
2022-09-21T23:56:31.609Z,98482.72
2022-09-21T23:58:59.173Z,98487.22
